createdAt,value
2023-05-20T00:00:41.048Z,100866.34
2023-05-20T00:03:08.382Z,100853.91
2023-05-20T00:05:35.978Z,100865.69
2023-05-20T00:08:07.378Z,100864.00
2023-05-20T00:10:34.885Z,100861.94
2023-05-20T00:13:02.449Z,100853.72
2023-05-20T00:15:29.904Z,100846.88
2023-05-20T00:17:57.569Z,100844.13
2023-05-20T00:20:25.346Z,100844.13
2023-05-20T00:22:52.693Z,100837.09
2023-05-20T00:25:19.973Z,100835.50
2023-05-20T00:27:47.642Z,100830.47
2023-05-20T00:30:15.005Z,100833.84
2023-05-20T00:32:42.445Z,100826.13
2023-05-20T00:35:11.807Z,100821.59
2023-05-20T00:37:39.263Z,100823.28
2023-05-20T00:40:06.997Z,100825.91
2023-05-20T00:42:34.439Z,100821.91
2023-05-20T00:45:01.938Z,100818.03
2023-05-20T00:47:31.012Z,100820.31
2023-05-20T00:49:58.902Z,100806.78
2023-05-20T00:52:27.491Z,100811.81
2023-05-20T00:54:55.512Z,100810.69
2023-05-20T00:57:23.023Z,100815.41
2023-05-20T00:59:50.632Z,100813.81
2023-05-20T01:02:17.919Z,100813.00
2023-05-20T01:04:47.470Z,100815.63
2023-05-20T01:07:19.313Z,100811.41
2023-05-20T01:09:49.074Z,100811.66
2023-05-20T01:12:18.433Z,100817.28
2023-05-20T01:14:50.488Z,100810.94
2023-05-20T01:17:21.149Z,100806.44
2023-05-20T01:19:49.167Z,100798.56
2023-05-20T01:22:16.602Z,100792.50
2023-05-20T01:24:48.459Z,100797.16
2023-05-20T01:27:16.034Z,100796.50
2023-05-20T01:29:44.348Z,100785.56
2023-05-20T01:32:17.748Z,100791.94
2023-05-20T01:34:46.249Z,100794.00
2023-05-20T01:37:15.931Z,100782.03
2023-05-20T01:39:43.437Z,100779.66
2023-05-20T01:42:11.344Z,100782.50
2023-05-20T01:44:38.702Z,100773.81
2023-05-20T01:47:06.315Z,100786.13
2023-05-20T01:49:33.667Z,100780.66
2023-05-20T01:52:01.569Z,100778.97
2023-05-20T01:54:30.306Z,100768.03
2023-05-20T01:56:57.630Z,100766.19
2023-05-20T01:59:25.120Z,100765.97
2023-05-20T02:01:52.664Z,100756.28
2023-05-20T02:04:20.205Z,100749.97
2023-05-20T02:06:47.724Z,100750.41
2023-05-20T02:09:15.491Z,100752.06
2023-05-20T02:11:42.911Z,100748.72
2023-05-20T02:14:10.357Z,100749.97
2023-05-20T02:16:37.703Z,100746.41
2023-05-20T02:19:05.175Z,100732.53
2023-05-20T02:21:32.579Z,100740.63
2023-05-20T02:24:00.000Z,100740.19
2023-05-20T02:26:27.644Z,100742.19
2023-05-20T02:28:55.057Z,100738.31
2023-05-20T02:31:22.999Z,100734.84
2023-05-20T02:33:50.386Z,100728.84
2023-05-20T02:36:18.339Z,100723.50
2023-05-20T02:38:45.813Z,100725.41
2023-05-20T02:41:13.141Z,100726.84
2023-05-20T02:43:45.163Z,100724.03
2023-05-20T02:46:12.768Z,100728.53
2023-05-20T02:48:40.483Z,100722.53
2023-05-20T02:51:08.029Z,100723.91
2023-05-20T02:53:35.414Z,100722.22
2023-05-20T02:56:06.086Z,100717.81
2023-05-20T02:58:33.410Z,100716.63
2023-05-20T03:01:00.715Z,100710.59
2023-05-20T03:03:28.248Z,100705.59
2023-05-20T03:05:55.760Z,100705.19
2023-05-20T03:08:24.760Z,100695.63
2023-05-20T03:10:52.085Z,100703.72
2023-05-20T03:13:19.556Z,100700.75
2023-05-20T03:15:46.919Z,100701.16
2023-05-20T03:18:14.360Z,100700.13
2023-05-20T03:20:42.959Z,100695.53
2023-05-20T03:23:11.151Z,100698.75
2023-05-20T03:25:41.477Z,100706.03
2023-05-20T03:28:08.969Z,100699.91
2023-05-20T03:30:38.013Z,100702.91
2023-05-20T03:33:06.078Z,100698.97
2023-05-20T03:35:33.839Z,100691.66
2023-05-20T03:38:01.911Z,100685.13
2023-05-20T03:40:29.810Z,100690.91
2023-05-20T03:42:57.261Z,100696.91
2023-05-20T03:45:25.505Z,100689.81
2023-05-20T03:48:03.888Z,100695.97
2023-05-20T03:50:34.479Z,100688.13
2023-05-20T03:53:02.056Z,100691.47
2023-05-20T03:55:35.862Z,100691.66
2023-05-20T03:58:04.007Z,100695.03
2023-05-20T04:00:32.738Z,100691.28
2023-05-20T04:03:00.943Z,100687.72
2023-05-20T04:05:28.781Z,100696.34
2023-05-20T04:07:57.638Z,100695.97
2023-05-20T04:10:25.934Z,100695.22
2023-05-20T04:12:54.082Z,100691.19
2023-05-20T04:15:23.961Z,100689.41
2023-05-20T04:17:57.788Z,100683.97
2023-05-20T04:20:25.397Z,100681.91
2023-05-20T04:22:56.278Z,100671.59
2023-05-20T04:25:24.193Z,100676.84
2023-05-20T04:27:54.214Z,100680.44
2023-05-20T04:30:22.128Z,100682.09
2023-05-20T04:32:51.042Z,100691.44
2023-05-20T04:35:18.515Z,100682.28
2023-05-20T04:37:53.246Z,100688.38
2023-05-20T04:40:21.432Z,100690.50
2023-05-20T04:42:48.785Z,100692.00
2023-05-20T04:45:16.411Z,100684.53
2023-05-20T04:47:44.545Z,100689.38
2023-05-20T04:50:12.638Z,100679.63
2023-05-20T04:52:43.357Z,100677.41
2023-05-20T04:55:12.218Z,100682.84
2023-05-20T04:57:42.002Z,100674.06
2023-05-20T05:00:11.060Z,100671.97
2023-05-20T05:02:39.235Z,100668.22
2023-05-20T05:05:07.162Z,100668.75
2023-05-20T05:07:35.051Z,100656.06
2023-05-20T05:10:02.590Z,100662.69
2023-05-20T05:12:33.850Z,100650.22
2023-05-20T05:15:01.401Z,100656.72
2023-05-20T05:17:31.480Z,100660.28
2023-05-20T05:19:59.095Z,100649.78
2023-05-20T05:22:29.303Z,100641.41
2023-05-20T05:24:56.602Z,100643.72
2023-05-20T05:27:24.119Z,100644.38
2023-05-20T05:29:51.576Z,100628.22
2023-05-20T05:32:19.989Z,100628.22
2023-05-20T05:34:47.561Z,100627.63
2023-05-20T05:37:15.146Z,100623.13
2023-05-20T05:39:42.957Z,100622.19
2023-05-20T05:42:10.346Z,100621.97
2023-05-20T05:44:38.345Z,100618.19
2023-05-20T05:47:07.930Z,100614.63
2023-05-20T05:49:36.839Z,100621.56
2023-05-20T05:52:05.047Z,100623.78
2023-05-20T05:54:32.889Z,100621.88
2023-05-20T05:57:06.297Z,100618.84
2023-05-20T06:03:34.135Z,100624.63
2023-05-20T06:10:10.243Z,100627.47
2023-05-20T06:12:40.398Z,100631.22
2023-05-20T06:15:15.965Z,100634.78
2023-05-20T06:17:54.651Z,100639.41
2023-05-20T06:20:33.074Z,100635.72
2023-05-20T06:23:07.759Z,100629.97
2023-05-20T06:26:03.272Z,100633.31
2023-05-20T06:28:37.308Z,100628.06
2023-05-20T06:31:33.250Z,100639.53
2023-05-20T06:34:00.979Z,100629.75
2023-05-20T06:36:29.363Z,100635.00
2023-05-20T06:38:57.689Z,100636.69
2023-05-20T06:41:26.629Z,100641.94
2023-05-20T06:43:54.450Z,100642.31
2023-05-20T06:46:37.061Z,100640.66
2023-05-20T06:49:07.056Z,100642.84
2023-05-20T06:51:35.508Z,100636.47
2023-05-20T06:54:08.044Z,100645.06
2023-05-20T06:56:36.509Z,100647.06
2023-05-20T06:59:03.992Z,100652.19
2023-05-20T07:01:34.238Z,100650.31
2023-05-20T07:04:02.512Z,100646.97
2023-05-20T07:06:31.650Z,100646.97
2023-05-20T07:08:59.509Z,100639.53
2023-05-20T07:11:27.175Z,100646.56
2023-05-20T07:13:55.837Z,100646.88
2023-05-20T07:16:25.483Z,100645.53
2023-05-20T07:18:56.571Z,100648.03
2023-05-20T07:21:25.015Z,100652.97
2023-05-20T07:24:15.830Z,100646.78
2023-05-20T07:26:43.530Z,100640.38
2023-05-20T07:29:10.977Z,100642.78
2023-05-20T07:31:39.753Z,100627.47
2023-05-20T07:34:07.709Z,100626.41
2023-05-20T07:36:35.554Z,100628.09
2023-05-20T07:39:09.066Z,100618.66
2023-05-20T07:41:40.349Z,100626.09
2023-05-20T07:44:12.598Z,100628.28
2023-05-20T07:46:43.470Z,100625.47
2023-05-20T07:49:11.946Z,100623.63
2023-05-20T07:51:40.373Z,100629.78
2023-05-20T07:54:08.150Z,100619.53
2023-05-20T07:56:36.164Z,100619.09
2023-05-20T07:59:03.831Z,100611.47
2023-05-20T08:01:37.228Z,100622.78
2023-05-20T08:04:06.294Z,100626.53
2023-05-20T08:06:35.470Z,100616.19
2023-05-20T08:09:04.681Z,100615.72
2023-05-20T08:11:35.410Z,100617.31
2023-05-20T08:14:03.285Z,100626.06
2023-05-20T08:16:37.650Z,100636.88
2023-05-20T08:19:05.380Z,100631.97
2023-05-20T08:21:33.547Z,100634.47
2023-05-20T08:24:01.432Z,100630.13
2023-05-20T08:26:29.427Z,100632.06
2023-05-20T08:28:56.965Z,100637.44
2023-05-20T08:31:24.923Z,100645.41
2023-05-20T08:33:52.571Z,100654.91
2023-05-20T08:36:20.095Z,100667.56
2023-05-20T08:38:47.900Z,100662.72
2023-05-20T08:41:15.973Z,100671.81
2023-05-20T08:43:46.557Z,100666.19
2023-05-20T08:46:16.306Z,100663.69
2023-05-20T08:48:45.960Z,100663.28
2023-05-20T08:51:15.955Z,100669.25
2023-05-20T08:53:43.411Z,100677.59
2023-05-20T08:56:11.846Z,100684.31
2023-05-20T08:58:39.296Z,100679.66
2023-05-20T09:01:07.915Z,100682.22
2023-05-20T09:03:35.453Z,100686.22
2023-05-20T09:06:09.718Z,100677.47
2023-05-20T09:08:37.414Z,100680.53
2023-05-20T09:11:05.361Z,100688.91
2023-05-20T09:13:33.371Z,100689.06
2023-05-20T09:16:02.297Z,100692.84
2023-05-20T09:18:30.331Z,100686.19
2023-05-20T09:20:58.218Z,100685.66
2023-05-20T09:23:26.095Z,100686.88
2023-05-20T09:25:53.586Z,100689.78
2023-05-20T09:28:24.367Z,100687.28
2023-05-20T09:30:51.927Z,100684.13
2023-05-20T09:33:19.442Z,100691.63
2023-05-20T09:35:47.270Z,100684.25
2023-05-20T09:38:15.737Z,100682.00
2023-05-20T09:40:44.632Z,100680.47
2023-05-20T09:43:12.608Z,100680.47
2023-05-20T09:45:41.301Z,100677.63
2023-05-20T09:48:10.946Z,100678.13
2023-05-20T09:50:38.620Z,100677.75
2023-05-20T09:53:06.641Z,100674.75
2023-05-20T09:55:34.629Z,100679.78
2023-05-20T09:58:03.302Z,100676.19
2023-05-20T10:00:31.736Z,100672.84
2023-05-20T10:02:59.873Z,100669.72
2023-05-20T10:05:30.393Z,100673.09
2023-05-20T10:08:00.875Z,100670.34
2023-05-20T10:10:28.391Z,100657.06
2023-05-20T10:13:07.841Z,100660.38
2023-05-20T10:15:51.864Z,100650.63
2023-05-20T10:18:22.539Z,100650.63
2023-05-20T10:20:51.040Z,100638.38
2023-05-20T10:23:28.068Z,100645.34
2023-05-20T10:25:56.249Z,100644.09
2023-05-20T10:28:36.257Z,100641.59
2023-05-20T10:31:04.175Z,100634.28
2023-05-20T10:33:41.500Z,100636.56
2023-05-20T10:36:09.028Z,100633.56
2023-05-20T10:38:37.209Z,100622.31
2023-05-20T10:41:11.508Z,100626.66
2023-05-20T10:47:24.771Z,100626.16
2023-05-20T10:49:53.669Z,100621.47
2023-05-20T10:52:21.377Z,100611.63
2023-05-20T10:54:56.360Z,100612.53
2023-05-20T10:57:24.590Z,100607.88
2023-05-20T10:59:52.820Z,100596.81
2023-05-20T11:02:26.664Z,100596.78
2023-05-20T11:05:00.838Z,100599.66
2023-05-20T11:07:29.227Z,100593.38
2023-05-20T11:09:57.273Z,100606.31
2023-05-20T11:12:26.102Z,100591.44
2023-05-20T11:14:53.977Z,100598.91
2023-05-20T11:17:22.546Z,100591.72
2023-05-20T11:19:50.719Z,100591.06
2023-05-20T11:22:18.128Z,100582.94
2023-05-20T11:24:46.730Z,100576.44
2023-05-20T11:27:14.172Z,100583.41
2023-05-20T11:29:42.346Z,100578.91
2023-05-20T11:32:11.039Z,100576.00
2023-05-20T11:34:39.485Z,100568.91
2023-05-20T11:37:08.167Z,100570.34
2023-05-20T11:39:38.640Z,100561.75
2023-05-20T11:42:06.668Z,100564.28
2023-05-20T11:44:34.318Z,100561.91
2023-05-20T11:47:02.548Z,100550.84
2023-05-20T11:49:30.933Z,100555.94
2023-05-20T11:51:58.910Z,100546.00
2023-05-20T11:54:26.512Z,100536.63
2023-05-20T11:56:54.814Z,100558.09
2023-05-20T11:59:23.899Z,100559.06
2023-05-20T12:01:51.524Z,100572.94
2023-05-20T12:04:19.265Z,100590.94
2023-05-20T12:06:46.993Z,100606.59
2023-05-20T12:09:14.857Z,100620.88
2023-05-20T12:11:42.580Z,100629.53
2023-05-20T12:14:10.131Z,100621.13
2023-05-20T12:16:37.860Z,100604.50
2023-05-20T12:19:05.798Z,100593.94
2023-05-20T12:21:33.320Z,100594.53
2023-05-20T12:24:01.245Z,100603.16
2023-05-20T12:26:29.002Z,100611.53
2023-05-20T12:28:56.649Z,100612.94
2023-05-20T12:31:24.861Z,100607.66
2023-05-20T12:33:52.462Z,100607.00
2023-05-20T12:36:19.917Z,100612.91
2023-05-20T12:38:47.578Z,100618.16
2023-05-20T12:41:15.170Z,100621.03
2023-05-20T12:43:42.935Z,100619.34
2023-05-20T12:46:11.072Z,100617.44
2023-05-20T12:48:40.000Z,100621.13
2023-05-20T12:51:09.423Z,100614.72
2023-05-20T12:53:36.834Z,100616.66
2023-05-20T12:56:05.666Z,100613.28
2023-05-20T12:58:33.686Z,100616.41
2023-05-20T13:01:01.119Z,100625.78
2023-05-20T13:03:28.800Z,100609.22
2023-05-20T13:05:56.346Z,100614.81
2023-05-20T13:08:26.504Z,100615.91
2023-05-20T13:10:54.982Z,100617.09
2023-05-20T13:13:22.808Z,100624.53
2023-05-20T13:15:51.676Z,100607.78
2023-05-20T13:18:19.686Z,100615.91
2023-05-20T13:20:47.233Z,100619.25
2023-05-20T13:23:14.668Z,100621.25
2023-05-20T13:25:42.142Z,100611.31
2023-05-20T13:28:10.479Z,100618.34
2023-05-20T13:30:38.132Z,100607.09
2023-05-20T13:33:05.989Z,100607.72
2023-05-20T13:35:33.821Z,100608.53
2023-05-20T13:38:01.249Z,100615.50
2023-05-20T13:40:28.847Z,100614.06
2023-05-20T13:42:56.468Z,100620.28
2023-05-20T13:45:23.901Z,100618.41
2023-05-20T13:47:51.501Z,100618.91
2023-05-20T13:50:19.366Z,100613.06
2023-05-20T13:52:46.800Z,100610.78
2023-05-20T13:55:14.192Z,100605.16
2023-05-20T13:57:42.447Z,100597.97
2023-05-20T14:00:10.169Z,100589.97
2023-05-20T14:02:37.566Z,100589.00
2023-05-20T14:05:06.197Z,100575.69
2023-05-20T14:07:33.578Z,100584.25
2023-05-20T14:10:00.997Z,100592.84
2023-05-20T14:12:28.793Z,100594.78
2023-05-20T14:14:56.397Z,100594.53
2023-05-20T14:17:23.932Z,100592.13
2023-05-20T14:19:51.586Z,100591.13
2023-05-20T14:22:20.239Z,100600.25
2023-05-20T14:24:47.803Z,100608.84
2023-05-20T14:27:15.323Z,100597.81
2023-05-20T14:29:42.785Z,100605.38
2023-05-20T14:32:11.702Z,100604.34
2023-05-20T14:34:39.157Z,100612.38
2023-05-20T14:37:10.128Z,100599.75
2023-05-20T14:39:37.735Z,100600.44
2023-05-20T14:42:05.344Z,100598.25
2023-05-20T14:44:33.287Z,100599.94
2023-05-20T14:47:01.066Z,100592.44
2023-05-20T14:49:28.918Z,100588.91
2023-05-20T14:51:56.658Z,100595.91
2023-05-20T14:54:25.266Z,100593.53
2023-05-20T14:56:52.945Z,100598.97
2023-05-20T14:59:20.546Z,100595.59
2023-05-20T15:01:48.082Z,100595.50
2023-05-20T15:04:15.776Z,100593.84
2023-05-20T15:06:43.183Z,100597.19
2023-05-20T15:09:10.563Z,100595.28
2023-05-20T15:11:38.043Z,100592.41
2023-05-20T15:14:05.409Z,100604.38
2023-05-20T15:16:32.938Z,100598.84
2023-05-20T15:19:00.374Z,100607.97
2023-05-20T15:21:27.791Z,100618.50
2023-05-20T15:23:55.339Z,100617.06
2023-05-20T15:26:22.745Z,100615.63
2023-05-20T15:28:50.146Z,100613.13
2023-05-20T15:31:17.961Z,100601.75
2023-05-20T15:33:45.421Z,100605.56
2023-05-20T15:36:12.922Z,100595.28
2023-05-20T15:38:40.439Z,100600.06
2023-05-20T15:41:08.106Z,100597.91
2023-05-20T15:43:36.112Z,100591.41
2023-05-20T15:46:03.578Z,100589.16
2023-05-20T15:48:30.970Z,100590.47
2023-05-20T15:50:58.533Z,100594.66
2023-05-20T15:53:26.106Z,100579.81
2023-05-20T15:55:53.725Z,100577.78
2023-05-20T15:58:21.263Z,100576.34
2023-05-20T16:00:49.905Z,100581.88
2023-05-20T16:03:17.916Z,100580.19
2023-05-20T16:05:45.492Z,100570.81
2023-05-20T16:08:12.880Z,100575.97
2023-05-20T16:10:40.385Z,100572.97
2023-05-20T16:13:07.728Z,100564.13
2023-05-20T16:15:38.091Z,100571.78
2023-05-20T16:18:05.560Z,100567.69
2023-05-20T16:20:33.223Z,100568.44
2023-05-20T16:23:00.872Z,100566.78
2023-05-20T16:25:31.352Z,100563.41
2023-05-20T16:28:01.037Z,100577.78
2023-05-20T16:30:28.464Z,100569.88
2023-05-20T16:32:55.990Z,100569.50
2023-05-20T16:35:23.494Z,100572.25
2023-05-20T16:37:51.038Z,100574.41
2023-05-20T16:40:18.550Z,100571.91
2023-05-20T16:42:46.069Z,100578.03
2023-05-20T16:45:13.419Z,100583.53
2023-05-20T16:47:40.933Z,100585.19
2023-05-20T16:50:08.951Z,100581.84
2023-05-20T16:52:37.923Z,100580.28
2023-05-20T16:55:08.068Z,100582.94
2023-05-20T16:57:35.866Z,100593.94
2023-05-20T17:00:07.831Z,100590.22
2023-05-20T17:02:36.243Z,100583.84
2023-05-20T17:05:07.713Z,100589.72
2023-05-20T17:07:35.755Z,100591.63
2023-05-20T17:10:03.410Z,100587.16
2023-05-20T17:12:30.862Z,100584.50
2023-05-20T17:14:58.276Z,100590.25
2023-05-20T17:17:25.687Z,100585.97
2023-05-20T17:19:53.231Z,100591.06
2023-05-20T17:22:20.770Z,100595.69
2023-05-20T17:24:48.196Z,100594.25
2023-05-20T17:27:15.538Z,100596.97
2023-05-20T17:29:43.046Z,100588.28
2023-05-20T17:32:10.568Z,100603.53
2023-05-20T17:34:37.967Z,100598.63
2023-05-20T17:37:05.250Z,100598.97
2023-05-20T17:39:32.696Z,100608.53
2023-05-20T17:41:59.999Z,100604.31
2023-05-20T17:44:27.443Z,100610.34
2023-05-20T17:46:54.872Z,100615.59
2023-05-20T17:49:22.339Z,100612.25
2023-05-20T17:51:49.938Z,100621.31
2023-05-20T17:54:17.565Z,100630.34
2023-05-20T17:56:47.693Z,100632.47
2023-05-20T17:59:15.145Z,100642.38
2023-05-20T18:01:42.896Z,100642.69
2023-05-20T18:04:10.646Z,100651.00
2023-05-20T18:06:38.179Z,100658.16
2023-05-20T18:09:06.100Z,100663.81
2023-05-20T18:11:34.100Z,100667.81
2023-05-20T18:14:02.049Z,100669.94
2023-05-20T18:16:30.394Z,100668.66
2023-05-20T18:18:58.325Z,100668.81
2023-05-20T18:21:26.474Z,100661.28
2023-05-20T18:23:54.077Z,100655.41
2023-05-20T18:26:21.768Z,100665.47
2023-05-20T18:28:50.223Z,100661.47
2023-05-20T18:31:17.964Z,100660.66
2023-05-20T18:33:45.401Z,100665.25
2023-05-20T18:36:13.222Z,100667.88
2023-05-20T18:38:41.945Z,100660.94
2023-05-20T18:41:09.409Z,100664.72
2023-05-20T18:43:36.773Z,100659.88
2023-05-20T18:46:04.342Z,100655.56
2023-05-20T18:48:31.848Z,100655.19
2023-05-20T18:50:59.377Z,100646.75
2023-05-20T18:53:26.817Z,100657.03
2023-05-20T18:55:54.424Z,100652.84
2023-05-20T18:58:21.723Z,100652.22
2023-05-20T19:00:49.141Z,100654.09
2023-05-20T19:03:17.148Z,100648.84
2023-05-20T19:05:44.657Z,100654.75
2023-05-20T19:08:12.414Z,100654.00
2023-05-20T19:10:40.044Z,100648.84
2023-05-20T19:13:07.696Z,100654.09
2023-05-20T19:15:35.231Z,100651.56
2023-05-20T19:18:02.822Z,100653.91
2023-05-20T19:20:30.222Z,100650.97
2023-05-20T19:22:57.612Z,100655.47
2023-05-20T19:25:25.169Z,100655.19
2023-05-20T19:27:53.000Z,100649.94
2023-05-20T19:30:21.023Z,100641.94
2023-05-20T19:32:49.512Z,100650.31
2023-05-20T19:35:18.200Z,100639.81
2023-05-20T19:37:46.330Z,100643.59
2023-05-20T19:40:13.974Z,100646.31
2023-05-20T19:42:42.335Z,100648.34
2023-05-20T19:45:11.185Z,100647.41
2023-05-20T19:47:40.641Z,100640.25
2023-05-20T19:50:08.692Z,100645.50
2023-05-20T19:52:37.243Z,100642.97
2023-05-20T19:55:05.199Z,100652.81
2023-05-20T19:57:33.194Z,100648.44
2023-05-20T20:00:00.969Z,100647.41
2023-05-20T20:02:28.860Z,100644.44
2023-05-20T20:04:56.705Z,100652.81
2023-05-20T20:07:24.796Z,100660.91
2023-05-20T20:09:55.346Z,100654.06
2023-05-20T20:12:24.246Z,100665.63
2023-05-20T20:14:52.174Z,100669.41
2023-05-20T20:17:22.040Z,100669.59
2023-05-20T20:19:53.449Z,100664.34
2023-05-20T20:22:21.125Z,100660.34
2023-05-20T20:24:50.113Z,100663.41
2023-05-20T20:27:19.968Z,100665.44
2023-05-20T20:29:48.280Z,100672.75
2023-05-20T20:32:15.988Z,100669.41
2023-05-20T20:34:43.438Z,100660.78
2023-05-20T20:37:14.835Z,100669.41
2023-05-20T20:39:43.273Z,100669.41
2023-05-20T20:42:10.778Z,100664.34
2023-05-20T20:44:38.735Z,100670.63
2023-05-20T20:47:06.218Z,100673.16
2023-05-20T20:49:34.321Z,100667.47
2023-05-20T20:52:02.179Z,100669.16
2023-05-20T20:54:29.719Z,100672.72
2023-05-20T20:56:57.033Z,100665.81
2023-05-20T20:59:26.744Z,100662.66
2023-05-20T21:01:54.831Z,100666.66
2023-05-20T21:04:22.462Z,100660.56
2023-05-20T21:06:50.066Z,100662.56
2023-05-20T21:09:17.667Z,100658.25
2023-05-20T21:11:49.556Z,100646.72
2023-05-20T21:14:16.908Z,100640.94
2023-05-20T21:16:44.303Z,100642.41
2023-05-20T21:19:11.742Z,100643.38
2023-05-20T21:21:39.035Z,100646.72
2023-05-20T21:24:06.610Z,100633.41
2023-05-20T21:26:34.049Z,100634.34
2023-05-20T21:29:01.410Z,100640.00
2023-05-20T21:31:28.989Z,100631.19
2023-05-20T21:33:56.298Z,100628.03
2023-05-20T21:36:23.668Z,100625.41
2023-05-20T21:38:51.050Z,100627.19
2023-05-20T21:41:18.421Z,100630.75
2023-05-20T21:43:45.843Z,100624.88
2023-05-20T21:46:13.613Z,100615.31
2023-05-20T21:48:41.102Z,100614.38
2023-05-20T21:51:08.464Z,100617.09
2023-05-20T21:53:35.881Z,100624.66
2023-05-20T21:56:03.617Z,100615.63
2023-05-20T21:58:31.044Z,100616.47
2023-05-20T22:00:58.411Z,100619.09
2023-05-20T22:03:25.939Z,100605.75
2023-05-20T22:05:53.391Z,100605.56
2023-05-20T22:08:20.768Z,100604.41
2023-05-20T22:10:48.538Z,100600.09
2023-05-20T22:13:15.853Z,100594.47
2023-05-20T22:15:43.247Z,100595.94
2023-05-20T22:18:12.507Z,100596.56
2023-05-20T22:20:39.983Z,100598.69
2023-05-20T22:23:07.392Z,100585.69
2023-05-20T22:25:36.480Z,100578.53
2023-05-20T22:28:04.617Z,100585.25
2023-05-20T22:30:31.933Z,100581.25
2023-05-20T22:32:59.488Z,100587.56
2023-05-20T22:35:26.879Z,100582.53
2023-05-20T22:37:54.982Z,100580.13
2023-05-20T22:40:22.444Z,100580.00
2023-05-20T22:42:49.839Z,100571.59
2023-05-20T22:45:17.344Z,100568.25
2023-05-20T22:47:47.854Z,100563.22
2023-05-20T22:50:15.279Z,100566.56
2023-05-20T22:52:42.728Z,100565.06
2023-05-20T22:55:10.231Z,100563.22
2023-05-20T22:57:37.749Z,100556.28
2023-05-20T23:00:06.438Z,100548.63
2023-05-20T23:02:34.124Z,100552.91
2023-05-20T23:05:03.797Z,100544.09
2023-05-20T23:07:31.338Z,100540.09
2023-05-20T23:09:58.795Z,100543.59
2023-05-20T23:12:26.374Z,100541.13
2023-05-20T23:14:53.815Z,100533.81
2023-05-20T23:17:21.293Z,100542.81
2023-05-20T23:19:48.556Z,100537.16
2023-05-20T23:22:16.491Z,100530.84
2023-05-20T23:24:43.974Z,100529.94
2023-05-20T23:27:11.361Z,100522.50
2023-05-20T23:29:38.614Z,100525.41
2023-05-20T23:32:06.232Z,100524.69
2023-05-20T23:34:34.200Z,100521.13
2023-05-20T23:37:01.598Z,100518.50
2023-05-20T23:39:29.169Z,100519.44
2023-05-20T23:41:56.574Z,100520.59
2023-05-20T23:44:24.142Z,100504.63
2023-05-20T23:46:51.650Z,100511.78
2023-05-20T23:49:22.526Z,100509.88
2023-05-20T23:51:50.122Z,100511.78
2023-05-20T23:54:18.072Z,100504.63
2023-05-20T23:56:45.575Z,100504.63
2023-05-20T23:59:12.986Z,100499.19
